Mc Intire, Iowa
Current Conditions -  °F | °C
As of 9:56 PM on Friday 28 Nov 2014 (Local Time) from KAUM Reporting Station
Clear Clear  
Wind Chill: 13°   Ceiling: Unl
Heat Index: 19°   Visibility: 7mi
Dew Point: 18°   Wind: 5mph
Humidity: 93%   Direction: 110°ESE
Pressure: 29.72"   Gusts: NA
Location:  43.4645°N, 92.6131°W
Report Text: KAUM 290356Z AUTO 11004KT 7SM CLR M07/M08 A2972 RMK AO2
Loading
Personal Weather Stations






























Interactive Weather Map New forecast layout! Learn more

10-Day Weather Forecast

Advertisements
Track Severe Weather on mobile